Station: EBLG - 13/05/2021 21:50Z (il y a 16 minutes)
EBLG 132150Z 24003KT CAVOK 10/04 Q1007 NOSIG
Vent du 240º - 3 kt
Visibilité > 10 km et plafond haut ou pas de nuages significatifs
Température: +10ºC - Point de rosée: +04ºC - QNH: 1007 hPa
Pas de changement significatif prévu dans les 2 heures qui suivent l'observation